Time;durP1;ratioP1;P1;durP2;ratioP2;P2;SDS_P1;SDS_P2;PMS_P1;PMS_P2;Temp;Humidity;BMP_temperature;BMP_pressure;BME280_temperature;BME280_humidity;BME280_pressure;Samples;Min_cycle;Max_cycle;Signal;HPM_P1;HPM_P2
2023/01/08 00:02:24;;;;;;;2.70;1.92;;;;;;;19.12;55.94;96522.94;10621471;27;20067;-52
2023/01/08 00:07:44;;;;;;;4.22;2.10;;;;;;;19.12;55.85;96514.06;10618900;28;20047;-52
2023/01/08 00:13:04;;;;;;;2.38;2.00;;;;;;;19.10;55.78;96511.69;10602612;28;20114;-51
2023/01/08 00:18:25;;;;;;;2.15;1.70;;;;;;;19.08;55.78;96508.53;10621687;28;20047;-52
2023/01/08 00:23:45;;;;;;;2.38;1.70;;;;;;;19.08;55.65;96499.66;10615686;27;20046;-52
2023/01/08 00:29:05;;;;;;;2.10;1.70;;;;;;;19.07;55.86;96489.94;10604411;28;20067;-52
2023/01/08 00:34:24;;;;;;;2.10;1.88;;;;;;;19.07;55.86;96496.16;10613229;27;20055;-52
2023/01/08 00:39:43;;;;;;;2.65;1.80;;;;;;;19.06;55.74;96489.16;10618599;27;20395;-52
2023/01/08 00:45:04;;;;;;;2.83;1.65;;;;;;;19.04;55.69;96491.41;10608912;27;20059;-52
2023/01/08 00:50:24;;;;;;;3.38;1.70;;;;;;;19.03;55.62;96489.81;10623338;27;20058;-51
2023/01/08 00:55:44;;;;;;;2.03;1.58;;;;;;;19.04;55.66;96479.81;10626810;27;20460;-52
2023/01/08 01:01:11;;;;;;;2.25;1.42;;;;;;;19.02;55.79;96488.25;10606680;27;20051;-52
2023/01/08 01:06:31;;;;;;;2.72;1.65;;;;;;;19.00;55.64;96473.50;10622159;27;20107;-52
2023/01/08 01:11:50;;;;;;;1.83;1.58;;;;;;;19.00;55.55;96476.97;10612884;27;20062;-51
2023/01/08 01:17:11;;;;;;;1.63;1.40;;;;;;;18.98;55.84;96479.22;10621078;27;20043;-52
2023/01/08 01:22:30;;;;;;;1.75;1.40;;;;;;;18.98;55.66;96481.13;10623917;27;20042;-52
2023/01/08 01:27:49;;;;;;;2.22;1.60;;;;;;;18.97;55.74;96474.94;10611677;27;20440;-52
2023/01/08 01:33:09;;;;;;;2.33;1.50;;;;;;;18.96;55.56;96494.97;10625181;27;20444;-51
2023/01/08 01:38:28;;;;;;;1.58;1.40;;;;;;;18.95;55.86;96477.97;10604737;27;20098;-51
2023/01/08 01:43:48;;;;;;;1.92;1.60;;;;;;;18.94;55.59;96467.50;10621495;27;20108;-53
2023/01/08 01:49:16;;;;;;;2.72;1.42;;;;;;;18.94;55.64;96462.09;10614753;27;20047;-51
2023/01/08 01:54:36;;;;;;;1.60;1.50;;;;;;;18.92;55.79;96448.16;10609093;27;20051;-52
2023/01/08 01:59:57;;;;;;;1.60;1.40;;;;;;;18.90;55.85;96447.69;10614595;27;20101;-52
2023/01/08 02:05:17;;;;;;;1.40;1.30;;;;;;;18.89;55.79;96446.88;10600165;27;20055;-52
2023/01/08 02:10:57;;;;;;;1.38;1.27;;;;;;;18.89;55.44;96444.19;10619183;27;20059;-51
2023/01/08 02:16:54;;;;;;;1.67;1.48;;;;;;;18.86;55.49;96436.75;10636882;27;20043;-52
2023/01/08 02:22:20;;;;;;;1.70;1.35;;;;;;;18.86;55.59;96438.66;10588131;27;20059;-51
2023/01/08 02:27:43;;;;;;;1.42;1.33;;;;;;;18.84;55.52;96439.00;10598666;27;20051;-52
2023/01/08 02:33:03;;;;;;;1.48;1.30;;;;;;;18.83;55.69;96426.59;10607257;27;20047;-52
2023/01/08 02:38:23;;;;;;;2.00;1.40;;;;;;;18.82;55.61;96424.22;10626164;27;20054;-52
2023/01/08 02:43:49;;;;;;;2.05;1.50;;;;;;;18.81;55.47;96414.56;10592296;27;20064;-51
2023/01/08 02:49:10;;;;;;;1.52;1.30;;;;;;;18.81;55.67;96412.66;10588173;27;20047;-51
2023/01/08 02:54:33;;;;;;;1.83;1.40;;;;;;;18.79;55.48;96414.84;10602561;27;20058;-51
2023/01/08 02:59:52;;;;;;;2.50;1.60;;;;;;;18.78;55.37;96400.56;10600232;27;20103;-51
2023/01/08 03:05:20;;;;;;;1.80;1.50;;;;;;;18.77;55.49;96400.91;10618011;27;20051;-51
2023/01/08 03:10:42;;;;;;;1.30;1.20;;;;;;;18.75;55.53;96406.63;10595047;27;20058;-51
2023/01/08 03:16:07;;;;;;;1.73;1.45;;;;;;;18.74;55.48;96412.38;10602412;27;20055;-52
2023/01/08 03:21:27;;;;;;;1.27;1.10;;;;;;;18.73;55.29;96411.56;10596877;27;20112;-52
2023/01/08 03:26:48;;;;;;;1.40;1.30;;;;;;;18.72;55.33;96412.69;10612140;27;20055;-52
2023/01/08 03:32:13;;;;;;;1.35;1.23;;;;;;;18.70;55.49;96406.84;10584668;27;20051;-51
2023/01/08 03:37:35;;;;;;;1.40;1.30;;;;;;;18.69;55.38;96389.03;10586911;27;20039;-52
2023/01/08 03:42:56;;;;;;;1.45;1.20;;;;;;;18.69;55.41;96394.44;10582841;27;20052;-53
2023/01/08 03:48:17;;;;;;;1.40;1.30;;;;;;;18.68;55.46;96386.66;10623168;27;20114;-52
2023/01/08 03:53:36;;;;;;;1.65;1.27;;;;;;;18.67;55.50;96396.69;10607660;27;20497;-52
2023/01/08 03:58:56;;;;;;;1.50;1.20;;;;;;;18.65;55.44;96382.72;10619231;27;20047;-53
2023/01/08 04:04:16;;;;;;;1.42;1.30;;;;;;;18.65;55.54;96377.34;10607726;27;20111;-52
2023/01/08 04:09:35;;;;;;;1.30;1.20;;;;;;;18.63;55.51;96371.47;10595275;28;20047;-51
2023/01/08 04:14:55;;;;;;;1.35;1.25;;;;;;;18.63;55.37;96378.78;10606828;28;20055;-51
2023/01/08 04:20:14;;;;;;;1.23;1.05;;;;;;;18.62;55.40;96371.78;10615843;28;20055;-52
2023/01/08 04:25:34;;;;;;;1.38;1.27;;;;;;;18.61;55.40;96365.63;10631414;27;20518;-52
2023/01/08 04:30:53;;;;;;;1.48;1.10;;;;;;;18.60;55.35;96357.84;10594118;28;20051;-50
2023/01/08 04:36:13;;;;;;;1.38;1.20;;;;;;;18.59;55.58;96351.66;10622098;28;20074;-51
2023/01/08 04:41:32;;;;;;;1.02;1.00;;;;;;;18.58;55.34;96341.97;10617839;27;20399;-52
2023/01/08 04:46:51;;;;;;;1.20;1.10;;;;;;;18.56;55.40;96330.72;10585674;28;20070;-52
2023/01/08 04:52:11;;;;;;;1.30;1.20;;;;;;;18.56;55.29;96325.34;10627349;27;20075;-52
2023/01/08 04:57:30;;;;;;;1.20;1.10;;;;;;;18.54;55.42;96311.38;10632342;27;20047;-52
2023/01/08 05:02:50;;;;;;;1.58;1.08;;;;;;;18.54;55.46;96316.78;10627144;27;20099;-50
2023/01/08 05:08:09;;;;;;;1.45;1.27;;;;;;;18.53;55.46;96315.22;10618348;28;20107;-52
2023/01/08 05:13:29;;;;;;;1.88;1.20;;;;;;;18.51;55.43;96309.38;10592937;28;20047;-51
2023/01/08 05:18:49;;;;;;;1.17;1.05;;;;;;;18.50;55.32;96305.88;10626530;27;20077;-53
2023/01/08 05:24:08;;;;;;;1.25;1.15;;;;;;;18.48;55.44;96304.63;10627665;27;20422;-53
2023/01/08 05:29:28;;;;;;;1.10;1.00;;;;;;;18.47;55.45;96314.63;10628268;27;20047;-52
2023/01/08 05:34:47;;;;;;;1.23;1.10;;;;;;;18.46;55.39;96320.34;10624548;27;20055;-53
2023/01/08 05:40:07;;;;;;;1.10;1.00;;;;;;;18.45;55.33;96308.78;10610967;27;20051;-50
2023/01/08 05:45:26;;;;;;;1.50;1.30;;;;;;;18.46;55.15;96293.38;10614296;27;20525;-51
2023/01/08 05:50:49;;;;;;;1.10;1.00;;;;;;;18.44;55.34;96284.81;10635277;27;20723;-50
2023/01/08 05:56:10;;;;;;;1.20;1.05;;;;;;;18.42;55.34;96279.75;10615599;27;21287;-51
2023/01/08 06:01:31;;;;;;;1.40;1.30;;;;;;;18.42;55.48;96285.13;10627394;27;20059;-52
2023/01/08 06:06:51;;;;;;;1.25;1.10;;;;;;;18.41;55.43;96288.19;10612191;27;20056;-52
2023/01/08 06:12:10;;;;;;;1.10;1.05;;;;;;;18.38;55.33;96285.03;10603821;27;20153;-52
2023/01/08 06:17:30;;;;;;;1.20;1.10;;;;;;;18.39;55.12;96291.22;10598948;27;20050;-52
2023/01/08 06:22:52;;;;;;;1.35;1.13;;;;;;;18.37;55.24;96277.25;10612695;27;20051;-50
2023/01/08 06:28:12;;;;;;;1.25;1.15;;;;;;;18.36;55.14;96267.59;10619726;27;20091;-52
2023/01/08 06:33:31;;;;;;;2.00;1.20;;;;;;;18.35;55.16;96261.41;10634158;27;20043;-52
2023/01/08 06:38:51;;;;;;;1.10;1.00;;;;;;;18.33;55.14;96257.47;10583970;27;20109;-52
2023/01/08 06:44:11;;;;;;;1.10;1.00;;;;;;;18.34;55.03;96253.63;10619323;27;20114;-51
2023/01/08 06:49:30;;;;;;;1.10;1.00;;;;;;;18.32;55.00;96245.88;10597018;27;20058;-52
2023/01/08 06:54:50;;;;;;;0.90;0.90;;;;;;;18.31;55.10;96238.13;10615051;27;20054;-52
2023/01/08 07:00:09;;;;;;;1.05;0.95;;;;;;;18.31;55.12;96244.31;10625302;27;20047;-52
2023/01/08 07:05:29;;;;;;;1.20;1.10;;;;;;;18.31;55.01;96257.00;10635733;27;20498;-50
2023/01/08 07:10:48;;;;;;;1.20;1.10;;;;;;;18.32;55.12;96263.97;10620874;27;20525;-52
2023/01/08 07:16:08;;;;;;;1.10;1.00;;;;;;;18.33;55.09;96257.47;10612054;27;20052;-52
2023/01/08 07:21:29;;;;;;;1.10;1.00;;;;;;;18.33;55.20;96247.47;10621279;27;20074;-51
2023/01/08 07:26:49;;;;;;;1.40;1.10;;;;;;;18.35;55.15;96249.84;10609165;27;20035;-52
2023/01/08 07:32:08;;;;;;;1.10;0.98;;;;;;;18.34;54.98;96254.41;10595157;27;20483;-49
2023/01/08 07:37:27;;;;;;;0.80;0.80;;;;;;;18.36;55.08;96254.88;10620349;27;20054;-51
2023/01/08 07:42:47;;;;;;;1.25;0.88;;;;;;;18.38;55.26;96254.56;10628674;27;20066;-49
2023/01/08 07:48:06;;;;;;;2.33;0.90;;;;;;;18.40;55.35;96229.97;10605699;27;20071;-49
2023/01/08 07:53:26;;;;;;;1.00;0.90;;;;;;;18.41;55.62;96235.03;10608357;27;20103;-49
2023/01/08 07:58:45;;;;;;;0.93;0.93;;;;;;;18.43;55.47;96248.97;10619567;27;20047;-50
2023/01/08 08:04:05;;;;;;;2.78;1.10;;;;;;;18.45;55.74;96232.47;10604662;27;20559;-50
2023/01/08 08:09:25;;;;;;;1.10;0.90;;;;;;;18.47;55.57;96235.63;10615778;28;20534;-49
2023/01/08 08:14:45;;;;;;;0.85;0.85;;;;;;;18.49;55.83;96244.97;10619834;28;20059;-51
2023/01/08 08:20:06;;;;;;;1.30;1.10;;;;;;;18.51;55.98;96233.84;10608160;28;20047;-51
2023/01/08 08:25:25;;;;;;;0.93;0.90;;;;;;;18.52;55.96;96244.31;10601767;28;20552;-50
2023/01/08 08:30:45;;;;;;;1.00;0.90;;;;;;;18.54;56.17;96252.03;10593819;27;20053;-49
2023/01/08 08:36:04;;;;;;;1.02;0.93;;;;;;;18.56;56.31;96266.00;10612693;28;20070;-50
2023/01/08 08:41:24;;;;;;;2.28;1.00;;;;;;;18.59;56.26;96268.03;10588810;28;20056;-52
2023/01/08 08:46:44;;;;;;;1.08;1.00;;;;;;;18.61;56.21;96255.00;10594875;28;20047;-52
2023/01/08 08:52:03;;;;;;;0.80;0.80;;;;;;;18.63;56.42;96250.06;10593500;28;20051;-48
2023/01/08 08:57:23;;;;;;;0.93;0.90;;;;;;;18.65;56.35;96237.03;10634585;27;20054;-50
2023/01/08 09:02:43;;;;;;;1.02;0.90;;;;;;;18.66;56.39;96227.84;10643403;27;20084;-49
2023/01/08 09:08:03;;;;;;;2.55;1.08;;;;;;;18.68;56.20;96230.19;10609420;27;20067;-49
2023/01/08 09:13:23;;;;;;;1.25;1.10;;;;;;;18.70;56.22;96227.94;10619467;27;20428;-48
2023/01/08 09:18:43;;;;;;;3.63;1.10;;;;;;;18.71;56.16;96224.91;10625892;27;20051;-48
2023/01/08 09:24:03;;;;;;;1.05;1.02;;;;;;;18.74;56.07;96245.06;10608906;27;20055;-50
2023/01/08 09:29:23;;;;;;;1.20;1.10;;;;;;;18.75;55.76;96249.31;10600198;27;20047;-50
2023/01/08 09:34:43;;;;;;;2.65;1.30;;;;;;;18.77;55.81;96247.09;10608036;27;20054;-48
2023/01/08 09:40:02;;;;;;;1.63;1.38;;;;;;;18.80;55.63;96242.97;10605042;27;20054;-47
2023/01/08 09:45:26;;;;;;;2.30;1.50;;;;;;;18.83;55.55;96240.38;10603561;27;20067;-45
2023/01/08 09:50:47;;;;;;;1.40;1.15;;;;;;;18.82;55.15;96240.72;10609303;27;20039;-47
2023/01/08 09:56:13;;;;;;;1.55;1.45;;;;;;;18.86;54.83;96260.53;10608257;27;20495;-46
2023/01/08 10:01:38;;;;;;;3.65;1.70;;;;;;;18.86;54.51;96241.66;10615177;27;20035;-46
2023/01/08 10:07:07;;;;;;;1.55;1.45;;;;;;;18.87;54.65;96230.50;10623366;27;20398;-48
2023/01/08 10:12:31;;;;;;;1.52;1.42;;;;;;;18.89;54.48;96222.06;10592199;27;20054;-46
2023/01/08 10:18:01;;;;;;;1.38;1.27;;;;;;;18.91;54.49;96222.53;10613167;27;20039;-49
2023/01/08 10:23:24;;;;;;;3.47;1.40;;;;;;;18.92;54.52;96219.50;10609950;27;20047;-53
2023/01/08 10:28:49;;;;;;;1.48;1.38;;;;;;;18.94;54.71;96221.88;10583939;28;20104;-52
2023/01/08 10:34:09;;;;;;;2.10;1.30;;;;;;;18.96;54.71;96200.72;10569709;28;20048;-52
2023/01/08 10:39:29;;;;;;;1.35;1.25;;;;;;;18.96;54.40;96206.13;10584737;28;20054;-52
2023/01/08 10:44:59;;;;;;;1.45;1.35;;;;;;;18.98;54.00;96206.59;10568847;28;20131;-52
2023/01/08 10:50:23;;;;;;;1.20;1.10;;;;;;;18.98;54.30;96195.78;10568334;28;20431;-53
2023/01/08 10:55:43;;;;;;;1.50;1.35;;;;;;;19.00;54.40;96193.53;10584119;28;20055;-52
2023/01/08 11:01:16;;;;;;;1.45;1.35;;;;;;;19.00;53.84;96182.75;10583129;28;20498;-51
2023/01/08 11:06:44;;;;;;;2.08;1.30;;;;;;;19.01;53.94;96170.81;10597124;28;20035;-52
2023/01/08 11:12:03;;;;;;;5.13;3.10;;;;;;;19.01;53.22;96165.41;10567762;28;20505;-52
2023/01/08 11:17:26;;;;;;;2.65;2.13;;;;;;;19.02;52.50;96183.19;10567278;28;20044;-52
2023/01/08 11:22:46;;;;;;;2.17;1.90;;;;;;;19.03;52.91;96171.25;10581023;28;20100;-50
2023/01/08 11:28:06;;;;;;;2.88;1.75;;;;;;;19.05;53.15;96168.22;10581441;28;20074;-52
2023/01/08 11:33:30;;;;;;;2.30;1.73;;;;;;;19.08;53.30;96183.78;10581019;28;20047;-53
2023/01/08 11:38:49;;;;;;;3.05;2.10;;;;;;;19.08;53.63;96181.84;10594887;28;20047;-53
2023/01/08 11:44:30;;;;;;;4.45;3.60;;;;;;;19.02;50.69;96174.31;10581838;28;20465;-52
2023/01/08 11:50:12;;;;;;;3.33;3.03;;;;;;;19.05;51.79;96176.31;10595504;28;20399;-52
2023/01/08 11:56:14;;;;;;;5.50;3.30;;;;;;;19.08;52.15;96172.97;10581164;28;20130;-51
2023/01/08 12:02:06;;;;;;;3.53;2.80;;;;;;;19.11;52.36;96150.69;10547078;28;20063;-50
2023/01/08 12:08:01;;;;;;;69.68;21.00;;;;;;;19.12;52.79;96131.47;10549854;28;20052;-52
2023/01/08 12:13:32;;;;;;;42.22;14.95;;;;;;;19.17;53.24;96141.25;10580566;28;20058;-50
2023/01/08 12:19:14;;;;;;;49.03;16.83;;;;;;;19.19;53.57;96146.31;10581388;28;20051;-48
2023/01/08 12:24:38;;;;;;;130.70;37.70;;;;;;;19.22;53.99;96169.94;10593426;28;20043;-49
2023/01/08 12:30:25;;;;;;;126.25;35.55;;;;;;;19.24;53.63;96133.38;10581744;28;20399;-47
2023/01/08 12:35:50;;;;;;;105.15;32.97;;;;;;;19.26;54.00;96130.34;10573609;28;20048;-48
2023/01/08 12:41:13;;;;;;;105.63;31.80;;;;;;;19.29;55.27;96116.94;10587837;28;20042;-47
2023/01/08 12:46:37;;;;;;;93.15;30.30;;;;;;;19.32;55.62;96107.38;10588657;28;20461;-49
2023/01/08 12:52:08;;;;;;;84.45;28.42;;;;;;;19.34;56.13;96088.91;10589150;28;20127;-49
2023/01/08 12:57:30;;;;;;;42.25;16.88;;;;;;;19.36;53.70;96079.34;10573652;28;20052;-50
2023/01/08 13:02:58;;;;;;;15.27;8.90;;;;;;;19.00;45.63;96084.78;10572810;28;20051;-60
2023/01/08 13:08:24;;;;;;;13.43;7.30;;;;;;;19.00;44.16;96090.97;10600592;28;20352;-58
2023/01/08 13:13:44;;;;;;;21.98;9.07;;;;;;;19.10;48.28;96089.72;10601518;28;20047;-59
2023/01/08 13:19:05;;;;;;;22.90;9.88;;;;;;;19.17;48.92;96089.97;10587428;28;20077;-59
2023/01/08 13:24:37;;;;;;;24.55;9.15;;;;;;;19.21;48.98;96085.47;10572402;28;20052;-60
2023/01/08 13:29:57;;;;;;;18.05;8.25;;;;;;;19.25;49.36;96101.75;10586907;28;20503;-60
2023/01/08 13:35:23;;;;;;;15.93;7.47;;;;;;;19.28;49.69;96092.97;10570078;28;20055;-61
2023/01/08 13:40:43;;;;;;;15.93;6.97;;;;;;;19.30;49.94;96109.63;10585010;28;20101;-60
2023/01/08 13:46:02;;;;;;;16.30;6.95;;;;;;;19.31;50.19;96087.69;10584549;28;20104;-62
2023/01/08 13:51:37;;;;;;;14.93;6.85;;;;;;;19.32;50.18;96075.75;10599288;28;20499;-62
2023/01/08 13:57:03;;;;;;;14.15;6.68;;;;;;;19.34;50.56;96086.22;10585537;28;20051;-63
2023/01/08 14:02:32;;;;;;;13.00;5.88;;;;;;;19.35;50.58;96085.88;10585696;28;20121;-51
2023/01/08 14:07:51;;;;;;;;;;;;;;;19.35;50.50;96075.06;10586510;28;20090;-52
2023/01/08 14:13:13;;;;;;;10.25;5.65;;;;;;;19.38;50.90;96068.19;10585896;28;19927;-49
2023/01/08 14:18:33;;;;;;;13.45;6.28;;;;;;;19.38;51.00;96084.41;10569653;28;20051;-53
2023/01/08 14:23:52;;;;;;;13.05;6.15;;;;;;;19.41;50.87;96067.53;10585418;28;20051;-50
2023/01/08 14:29:14;;;;;;;9.68;5.22;;;;;;;19.41;51.03;96055.94;10598662;28;20414;-52
2023/01/08 14:34:36;;;;;;;9.90;5.28;;;;;;;19.42;51.05;96057.50;10569063;28;20570;-51
2023/01/08 14:39:56;;;;;;;10.02;5.13;;;;;;;19.43;51.10;96053.69;10584050;28;20044;-52
2023/01/08 14:45:17;;;;;;;9.68;5.07;;;;;;;19.43;51.16;96043.66;10589667;28;20059;-52
2023/01/08 14:50:42;;;;;;;10.23;5.07;;;;;;;19.45;51.21;96046.03;10583983;28;20399;-52
2023/01/08 14:56:03;;;;;;;10.15;5.10;;;;;;;19.47;51.32;96055.38;10583122;28;20047;-53
2023/01/08 15:01:30;;;;;;;9.90;5.03;;;;;;;19.47;51.26;96032.97;10580787;28;20047;-52
2023/01/08 15:06:51;;;;;;;9.85;5.22;;;;;;;19.48;51.34;96032.63;10582194;28;20092;-52
2023/01/08 15:12:25;;;;;;;11.32;5.18;;;;;;;19.50;51.40;96037.69;10566718;28;20058;-51
2023/01/08 15:17:45;;;;;;;9.30;4.70;;;;;;;19.49;51.63;96036.91;10581729;28;20051;-53
2023/01/08 15:23:05;;;;;;;10.10;4.95;;;;;;;19.52;51.72;96038.13;10566558;28;20495;-53
2023/01/08 15:28:25;;;;;;;8.95;4.70;;;;;;;19.53;51.75;96037.00;10581529;28;20047;-61
2023/01/08 15:33:45;;;;;;;9.20;4.88;;;;;;;19.55;51.89;96040.94;10582591;28;20059;-59
2023/01/08 15:39:04;;;;;;;8.85;4.55;;;;;;;19.55;52.14;96043.63;10582213;28;20048;-58
2023/01/08 15:44:24;;;;;;;7.05;4.45;;;;;;;19.58;52.11;96033.25;10581601;28;20056;-58
2023/01/08 15:49:44;;;;;;;9.02;4.72;;;;;;;19.60;51.95;96025.59;10595189;28;20047;-59
2023/01/08 15:55:03;;;;;;;7.75;4.43;;;;;;;19.62;51.81;96042.25;10580853;28;20526;-59
2023/01/08 16:00:23;;;;;;;6.00;3.88;;;;;;;19.61;52.01;96033.38;10594984;28;20050;-60
2023/01/08 16:05:43;;;;;;;8.23;3.75;;;;;;;19.64;51.88;96037.28;10580718;28;20055;-59
2023/01/08 16:11:03;;;;;;;7.15;4.25;;;;;;;-146.19;100.00;65364.44;10581510;28;20044;-59
2023/01/08 16:16:23;;;;;;;8.20;3.90;;;;;;;-146.19;100.00;65364.44;10580706;28;20043;-59
2023/01/08 16:21:45;;;;;;;6.53;3.78;;;;;;;-146.19;100.00;65364.44;10581078;28;20059;-59
2023/01/08 16:27:05;;;;;;;7.43;4.10;;;;;;;-146.19;100.00;65364.44;10580826;28;20058;-51
2023/01/08 16:32:25;;;;;;;5.57;3.50;;;;;;;-146.19;100.00;65364.44;10581110;28;20055;-51
2023/01/08 16:37:44;;;;;;;5.75;3.72;;;;;;;-146.19;100.00;65364.44;10580347;28;20411;-53
2023/01/08 16:43:04;;;;;;;7.15;3.55;;;;;;;-146.19;100.00;65364.44;10579060;28;20130;-51
2023/01/08 16:48:23;;;;;;;6.03;3.75;;;;;;;-146.19;100.00;65364.44;10579642;28;20065;-51
2023/01/08 16:53:43;;;;;;;8.65;3.47;;;;;;;-146.19;100.00;65364.44;10579917;28;20059;-50
2023/01/08 16:59:02;;;;;;;6.80;3.38;;;;;;;-146.19;100.00;65364.44;10592584;28;20450;-48
2023/01/08 17:04:22;;;;;;;6.35;3.50;;;;;;;-146.19;100.00;65364.44;10579353;28;20396;-54
2023/01/08 17:09:42;;;;;;;6.07;3.40;;;;;;;-146.19;100.00;65364.44;10579254;28;20051;-54
2023/01/08 17:15:02;;;;;;;8.48;4.15;;;;;;;-146.19;100.00;65364.44;10580267;28;20158;-53
2023/01/08 17:20:22;;;;;;;9.02;3.65;;;;;;;-146.19;100.00;65364.44;10587690;28;20093;-54
2023/01/08 17:25:42;;;;;;;4.88;3.20;;;;;;;-146.19;100.00;65364.44;10601256;28;20407;-55
2023/01/08 17:31:07;;;;;;;5.45;3.47;;;;;;;-146.19;100.00;65364.44;10586973;28;20100;-54
2023/01/08 17:36:27;;;;;;;7.60;3.20;;;;;;;-146.19;100.00;65364.44;10586161;28;20047;-54
2023/01/08 17:47:25;;;;;;;8.38;3.42;;;;;;;-146.19;100.00;65364.44;10600194;28;20044;-51
2023/01/08 17:52:45;;;;;;;6.07;3.70;;;;;;;-146.19;100.00;65364.44;10586162;28;20491;-51
2023/01/08 17:58:04;;;;;;;6.72;3.45;;;;;;;-146.19;100.00;65364.44;10586212;28;20048;-53
2023/01/08 18:03:24;;;;;;;6.53;3.78;;;;;;;-146.19;100.00;65364.44;10585178;28;20048;-47
2023/01/08 18:08:44;;;;;;;5.95;3.45;;;;;;;-146.19;100.00;65364.44;10585646;28;20043;-51
2023/01/08 18:14:03;;;;;;;8.30;3.22;;;;;;;-146.19;100.00;65364.44;10598854;28;20044;-53
2023/01/08 18:19:24;;;;;;;8.00;3.22;;;;;;;-146.19;100.00;65364.44;10585130;28;20046;-53
2023/01/08 18:24:44;;;;;;;5.60;3.30;;;;;;;-146.19;100.00;65364.44;10584350;28;20051;-51
2023/01/08 18:30:06;;;;;;;4.32;3.28;;;;;;;-146.19;100.00;65364.44;10597688;28;20043;-50
2023/01/08 18:35:25;;;;;;;5.63;3.10;;;;;;;-146.19;100.00;65364.44;10598450;28;20053;-51
2023/01/08 18:40:45;;;;;;;5.70;3.33;;;;;;;-146.19;100.00;65364.44;10583192;28;20047;-59
2023/01/08 18:46:06;;;;;;;4.95;3.05;;;;;;;-146.19;100.00;65364.44;10582890;28;20051;-60
2023/01/08 18:51:26;;;;;;;4.68;3.03;;;;;;;-146.19;100.00;65364.44;10581198;28;20044;-61
2023/01/08 18:56:46;;;;;;;6.13;3.53;;;;;;;-146.19;100.00;65364.44;10583780;28;20059;-60
2023/01/08 19:02:10;;;;;;;5.47;3.15;;;;;;;-146.19;100.00;65364.44;10583679;28;20407;-58
2023/01/08 19:07:30;;;;;;;4.82;3.13;;;;;;;-146.19;100.00;65364.44;10553959;28;20047;-60
2023/01/08 19:12:50;;;;;;;4.50;2.80;;;;;;;-146.19;100.00;65364.44;10583393;28;20051;-59
2023/01/08 19:18:09;;;;;;;5.75;3.08;;;;;;;-146.19;100.00;65364.44;10596660;28;20047;-48
2023/01/08 19:23:29;;;;;;;4.70;2.90;;;;;;;-146.19;100.00;65364.44;10582363;28;20419;-50
2023/01/08 19:28:48;;;;;;;5.80;3.10;;;;;;;-146.19;100.00;65364.44;10595990;28;20043;-62
2023/01/08 19:34:08;;;;;;;5.03;3.20;;;;;;;-146.19;100.00;65364.44;10582303;28;20051;-59
2023/01/08 19:39:31;;;;;;;4.57;3.05;;;;;;;-146.19;100.00;65364.44;10581452;28;20047;-59
2023/01/08 19:44:50;;;;;;;3.60;2.80;;;;;;;-146.19;100.00;65364.44;10581698;28;20070;-59
2023/01/08 19:50:10;;;;;;;4.30;2.97;;;;;;;-146.19;100.00;65364.44;10582030;28;20047;-57
2023/01/08 19:55:30;;;;;;;4.63;2.85;;;;;;;-146.19;100.00;65364.44;10581314;28;20130;-56
2023/01/08 20:00:51;;;;;;;6.60;2.65;;;;;;;-146.19;100.00;65364.44;10594823;28;20052;-59
2023/01/08 20:06:18;;;;;;;6.22;2.80;;;;;;;-146.19;100.00;65364.44;10580932;28;20064;-74
2023/01/08 20:11:37;;;;;;;4.68;2.67;;;;;;;-146.19;100.00;65364.44;10581535;28;20047;-67
2023/01/08 20:16:57;;;;;;;5.68;2.75;;;;;;;-146.19;100.00;65364.44;10579988;28;20510;-62
2023/01/08 20:22:17;;;;;;;4.65;2.55;;;;;;;-146.19;100.00;65364.44;10581193;28;20059;-61
2023/01/08 20:27:36;;;;;;;4.95;2.55;;;;;;;-146.19;100.00;65364.44;10580281;28;20518;-63
2023/01/08 20:32:56;;;;;;;3.97;2.30;;;;;;;-146.19;100.00;65364.44;10580919;28;20055;-67
2023/01/08 20:38:16;;;;;;;5.15;3.00;;;;;;;-146.19;100.00;65364.44;10580483;28;20066;-68
2023/01/08 20:43:38;;;;;;;5.10;2.78;;;;;;;-146.19;100.00;65364.44;10590500;28;20044;-60
2023/01/08 20:49:02;;;;;;;4.25;2.47;;;;;;;-146.19;100.00;65364.44;10580772;28;20050;-60
2023/01/08 20:54:22;;;;;;;4.53;2.47;;;;;;;-146.19;100.00;65364.44;10588268;28;20060;-61
2023/01/08 20:59:41;;;;;;;4.95;2.30;;;;;;;-146.19;100.00;65364.44;10602396;28;20046;-61
2023/01/08 21:05:01;;;;;;;3.25;2.33;;;;;;;-146.19;100.00;65364.44;10602033;28;20050;-54
2023/01/08 21:10:20;;;;;;;2.88;2.35;;;;;;;-146.19;100.00;65364.44;10589849;27;20088;-53
2023/01/08 21:15:39;;;;;;;3.90;2.40;;;;;;;-146.19;100.00;65364.44;10606095;27;20051;-53
2023/01/08 21:21:03;;;;;;;3.67;2.45;;;;;;;-146.19;100.00;65364.44;10622365;27;20039;-54
2023/01/08 21:26:23;;;;;;;4.07;2.35;;;;;;;-146.19;100.00;65364.44;10615487;27;20047;-53
2023/01/08 21:31:43;;;;;;;3.38;2.25;;;;;;;-146.19;100.00;65364.44;10621812;27;20066;-53
2023/01/08 21:37:03;;;;;;;2.83;2.30;;;;;;;-146.19;100.00;65364.44;10622154;27;20047;-53
2023/01/08 21:48:01;;;;;;;3.28;2.42;;;;;;;-146.19;100.00;65364.44;10617712;27;20391;-53
2023/01/08 21:53:32;;;;;;;3.20;2.30;;;;;;;-146.19;100.00;65364.44;10614398;27;20052;-52
2023/01/08 21:58:52;;;;;;;2.75;2.25;;;;;;;-146.19;100.00;65364.44;10641311;27;20051;-53
2023/01/08 22:04:11;;;;;;;3.85;2.00;;;;;;;-146.19;100.00;65364.44;10614848;27;20047;-52
2023/01/08 22:09:31;;;;;;;4.88;2.50;;;;;;;-146.19;100.00;65364.44;10583577;27;20051;-52
2023/01/08 22:14:52;;;;;;;2.63;2.33;;;;;;;-146.19;100.00;65364.44;10617029;27;20058;-53
2023/01/08 22:20:13;;;;;;;2.92;2.20;;;;;;;-146.19;100.00;65364.44;10617541;27;20046;-53
2023/01/08 22:25:32;;;;;;;4.65;2.65;;;;;;;-146.19;100.00;65364.44;10598099;27;20066;-53
2023/01/08 22:30:51;;;;;;;3.45;2.38;;;;;;;-146.19;100.00;65364.44;10623237;27;20054;-51
2023/01/08 22:36:12;;;;;;;3.55;2.70;;;;;;;-146.19;100.00;65364.44;10606143;27;20047;-53
2023/01/08 22:41:31;;;;;;;3.58;2.47;;;;;;;-146.19;100.00;65364.44;10613640;27;20062;-52
2023/01/08 22:46:51;;;;;;;2.97;2.40;;;;;;;-146.19;100.00;65364.44;10618573;27;20055;-53
2023/01/08 22:52:10;;;;;;;3.35;2.20;;;;;;;-146.19;100.00;65364.44;10622603;27;20051;-53
2023/01/08 22:57:30;;;;;;;3.17;2.40;;;;;;;-146.19;100.00;65364.44;10619039;27;20051;-53
2023/01/08 23:02:50;;;;;;;3.33;2.40;;;;;;;-146.19;100.00;65364.44;10632545;27;20042;-53
2023/01/08 23:08:09;;;;;;;3.10;2.08;;;;;;;-146.19;100.00;65364.44;10604537;27;20092;-52
2023/01/08 23:13:28;;;;;;;3.63;2.40;;;;;;;-146.19;100.00;65364.44;10613938;27;20043;-53
2023/01/08 23:18:48;;;;;;;2.25;2.05;;;;;;;-146.19;100.00;65364.44;10605003;27;20051;-54
2023/01/08 23:24:11;;;;;;;3.60;2.28;;;;;;;-146.19;100.00;65364.44;10581907;27;20105;-53
2023/01/08 23:29:31;;;;;;;3.15;2.50;;;;;;;-146.19;100.00;65364.44;10581752;28;20051;-53
2023/01/08 23:34:51;;;;;;;3.05;2.30;;;;;;;-146.19;100.00;65364.44;10602728;27;20406;-53
2023/01/08 23:40:11;;;;;;;3.20;2.25;;;;;;;-146.19;100.00;65364.44;10623709;27;20051;-53
2023/01/08 23:45:30;;;;;;;4.03;2.70;;;;;;;-146.19;100.00;65364.44;10608610;27;20055;-51
2023/01/08 23:50:49;;;;;;;2.47;2.08;;;;;;;-146.19;100.00;65364.44;10614185;27;20047;-53
2023/01/08 23:56:09;;;;;;;3.13;2.15;;;;;;;-146.19;100.00;65364.44;10619134;27;20430;-53
